TimeAKST,TemperatureF,Dew PointF,Humidity,Sea Level PressureIn,VisibilityMPH,Wind Direction,Wind SpeedMPH,Gust SpeedMPH,PrecipitationIn,Events,Conditions,WindDirDegrees,DateUTC
12:53 AM,21.9,18.0,85,30.09,10.0,Calm,Calm,-,N/A,,Partly Cloudy,0,2014-01-03 09:53:00
1:53 AM,26.1,21.9,84,30.09,10.0,Calm,Calm,-,N/A,,Mostly Cloudy,0,2014-01-03 10:53:00
3:53 AM,28.0,23.0,81,30.10,10.0,Calm,Calm,-,N/A,,Overcast,0,2014-01-03 12:53:00
4:53 AM,30.0,24.1,79,30.10,10.0,NNW,4.6,-,N/A,,Overcast,340,2014-01-03 13:53:00
5:53 AM,30.0,24.1,79,30.12,10.0,NNW,5.8,-,N/A,,Overcast,330,2014-01-03 14:53:00
6:53 AM,30.0,24.1,79,30.13,10.0,NNW,5.8,-,N/A,,Overcast,330,2014-01-03 15:53:00
7:00 AM,30.2,24.8,80,30.13,10.0,Calm,Calm,-,N/A,,Overcast,0,2014-01-03 16:00:00
7:53 AM,30.0,24.1,79,30.15,10.0,NE,3.5,-,0.00,,Overcast,40,2014-01-03 16:53:00
8:40 AM,30.2,24.8,80,30.16,2.0,Calm,Calm,-,0.00,Snow,Light Snow,0,2014-01-03 17:40:00
8:44 AM,30.2,24.8,80,30.16,2.0,Calm,Calm,-,0.00,Snow,Light Snow,0,2014-01-03 17:44:00
8:53 AM,30.0,24.1,79,30.17,2.0,Calm,Calm,-,0.00,Snow,Light Snow,0,2014-01-03 17:53:00
9:04 AM,30.2,24.8,80,30.17,3.0,Calm,Calm,-,0.00,Snow,Light Snow,0,2014-01-03 18:04:00
9:08 AM,30.2,24.8,80,30.17,4.0,Calm,Calm,-,0.00,Snow,Light Snow,0,2014-01-03 18:08:00
9:53 AM,30.0,25.0,82,30.18,4.0,Calm,Calm,-,0.00,Snow,Light Snow,0,2014-01-03 18:53:00
10:53 AM,30.0,25.0,82,30.18,4.0,NNW,4.6,-,0.01,Snow,Light Snow,340,2014-01-03 19:53:00
11:53 AM,30.9,27.0,85,30.20,5.0,NNW,3.5,-,0.00,Snow,Light Snow,340,2014-01-03 20:53:00
12:53 PM,30.9,27.0,85,30.22,8.0,Calm,Calm,-,0.00,Snow,Light Snow,0,2014-01-03 21:53:00
1:44 PM,30.2,26.6,86,30.22,1.5,NNW,5.8,-,0.00,Snow,Light Snow,330,2014-01-03 22:44:00
1:53 PM,30.9,28.0,89,30.23,1.0,NNW,3.5,-,0.01,Snow,Light Snow,340,2014-01-03 22:53:00
1:57 PM,30.2,28.4,93,30.22,1.5,NNW,4.6,-,0.00,Snow,Light Snow,330,2014-01-03 22:57:00
2:41 PM,32.0,26.6,80,30.22,6.0,Calm,Calm,-,0.01,Snow,Light Snow,0,2014-01-03 23:41:00
2:53 PM,32.0,27.0,82,30.23,6.0,Calm,Calm,-,0.01,Snow,Light Snow,0,2014-01-03 23:53:00
2:57 PM,32.0,26.6,80,30.22,6.0,Calm,Calm,-,0.00,Snow,Light Snow,0,2014-01-03 23:57:00
3:53 PM,30.9,27.0,85,30.24,8.0,NNW,3.5,-,0.00,Snow,Light Snow,330,2014-01-04 00:53:00
4:39 PM,30.2,26.6,86,30.24,10.0,NNE,3.5,-,0.00,Snow,Light Snow,20,2014-01-04 01:39:00
4:53 PM,30.9,27.0,85,30.25,6.0,Calm,Calm,-,0.00,,Overcast,0,2014-01-04 01:53:00
5:53 PM,30.9,27.0,85,30.25,10.0,NE,3.5,-,0.00,,Overcast,50,2014-01-04 02:53:00
6:53 PM,30.9,28.0,89,30.25,5.0,North,4.6,-,N/A,,Overcast,350,2014-01-04 03:53:00
7:53 PM,30.9,27.0,85,30.25,9.0,NNW,4.6,-,N/A,,Overcast,330,2014-01-04 04:53:00
8:53 PM,30.9,27.0,85,30.24,9.0,North,5.8,-,N/A,,Overcast,360,2014-01-04 05:53:00
9:53 PM,30.0,26.1,85,30.23,10.0,Calm,Calm,-,N/A,Fog,Patches of Fog,0,2014-01-04 06:53:00
10:53 PM,30.0,26.1,85,30.24,10.0,Calm,Calm,-,N/A,Fog,Patches of Fog,0,2014-01-04 07:53:00
11:53 PM,30.0,26.1,85,30.24,10.0,NNE,3.5,-,N/A,Fog,Patches of Fog,20,2014-01-04 08:53:00